Alamota, Kansas
Current Conditions -  °F | °C
As of 2:54 AM on Saturday 25 Oct 2014 (Local Time) from KGCK Reporting Station
Clear Clear  
Wind Chill: 13°   Ceiling: Unl
Heat Index: 13°   Visibility: 10mi
Dew Point:   Wind: 5mph
Humidity: 64%   Direction: 260°W
Pressure: 30.08"   Gusts: NA
Location:  38.4812°N, 100.393°W
Report Text: KGCK 250754Z AUTO 26004KT 10SM CLR 13/07 A3008 RMK AO2 SLP158 T01330067
Loading
Personal Weather Stations






























Interactive Weather Map
Tropical Storm Tracking
New forecast layout! Learn more

10-Day Weather Forecast

Advertisements
Track Severe Weather on mobile